Time;durP1;ratioP1;P1;durP2;ratioP2;P2;SDS_P1;SDS_P2;PMS_P1;PMS_P2;Temp;Humidity;BMP_temperature;BMP_pressure;BME280_temperature;BME280_humidity;BME280_pressure;Samples;Min_cycle;Max_cycle;Signal;HPM_P1;HPM_P2
2023/03/06 00:02:11;;;;;;;2.65;1.73;;;;;;;15.92;71.44;100986.25;6258088;22;20003;-81
2023/03/06 00:04:37;;;;;;;4.43;1.98;;;;;;;15.93;72.76;100975.00;6230709;22;20004;-81
2023/03/06 00:07:02;;;;;;;3.53;1.75;;;;;;;15.91;73.02;100976.72;6228107;22;20424;-81
2023/03/06 00:09:28;;;;;;;2.35;1.75;;;;;;;15.90;71.74;100968.94;6255222;22;20091;-81
2023/03/06 00:11:53;;;;;;;3.85;1.90;;;;;;;15.90;73.16;100967.22;6257092;22;20003;-80
2023/03/06 00:14:18;;;;;;;3.80;1.80;;;;;;;15.90;72.09;100963.75;6205179;22;20016;-80
2023/03/06 00:16:45;;;;;;;4.55;1.90;;;;;;;15.89;73.76;100951.63;6232357;22;20016;-80
2023/03/06 00:19:11;;;;;;;1.92;1.40;;;;;;;15.90;74.07;100949.03;6230312;22;20073;-80
2023/03/06 00:21:39;;;;;;;3.83;1.77;;;;;;;15.88;72.22;100945.59;6228352;22;20437;-80
2023/03/06 00:24:05;;;;;;;4.25;1.60;;;;;;;15.87;72.75;100945.59;6253180;22;20011;-80
2023/03/06 00:26:30;;;;;;;2.85;1.60;;;;;;;15.87;73.39;100945.59;6228610;22;20094;-80
2023/03/06 00:28:56;;;;;;;4.32;1.65;;;;;;;15.87;73.44;100933.47;6228688;22;20012;-80
2023/03/06 00:31:21;;;;;;;3.63;1.63;;;;;;;15.87;73.32;100935.19;6228605;22;20528;-80
2023/03/06 00:33:48;;;;;;;2.58;1.40;;;;;;;15.87;71.97;100935.19;6228399;22;20012;-80
2023/03/06 00:36:13;;;;;;;3.72;1.40;;;;;;;15.87;73.09;100935.19;6253849;22;20003;-81
2023/03/06 00:38:39;;;;;;;3.13;1.50;;;;;;;15.87;73.46;100936.06;6254377;22;20015;-80
2023/03/06 00:41:12;;;;;;;2.22;1.40;;;;;;;15.86;72.87;100928.28;6228409;22;20077;-80
2023/03/06 00:43:38;;;;;;;3.33;1.67;;;;;;;15.86;73.78;100918.78;6254124;22;20011;-80
2023/03/06 00:46:04;;;;;;;2.17;1.40;;;;;;;15.84;69.59;100917.91;6253287;22;20007;-80
2023/03/06 00:48:30;;;;;;;2.15;1.40;;;;;;;15.86;70.15;100912.72;6253724;22;20394;-80
2023/03/06 00:50:56;;;;;;;2.60;1.15;;;;;;;15.84;71.00;100908.38;6228855;22;20012;-80
2023/03/06 00:53:21;;;;;;;2.88;1.48;;;;;;;15.84;70.05;100907.53;6203870;22;20012;-80
2023/03/06 00:55:48;;;;;;;3.45;1.40;;;;;;;15.86;73.06;100912.72;6246081;22;20348;-81
2023/03/06 00:58:14;;;;;;;3.45;1.42;;;;;;;15.83;72.47;100909.25;6278306;22;20011;-81
2023/03/06 01:00:39;;;;;;;3.63;1.20;;;;;;;15.84;71.61;100916.16;6277431;22;20035;-80
2023/03/06 01:03:05;;;;;;;1.90;1.25;;;;;;;15.84;71.63;100913.56;6236489;22;20027;-80
2023/03/06 01:05:33;;;;;;;2.63;1.10;;;;;;;15.83;71.06;100901.47;6238497;22;20068;-81
2023/03/06 01:07:59;;;;;;;2.65;1.20;;;;;;;15.84;71.25;100899.75;6278323;22;20000;-80
2023/03/06 01:10:26;;;;;;;3.47;1.23;;;;;;;15.83;71.42;100898.88;6279024;22;20030;-81
2023/03/06 01:12:52;;;;;;;2.50;1.10;;;;;;;15.83;69.61;100898.88;6253849;22;19996;-80
2023/03/06 01:15:18;;;;;;;2.47;1.35;;;;;;;15.82;69.91;100894.53;6273843;22;20166;-81
2023/03/06 01:17:43;;;;;;;1.90;1.10;;;;;;;15.84;72.90;100900.59;6259929;22;20014;-80
2023/03/06 01:20:13;;;;;;;2.13;1.00;;;;;;;15.82;71.57;100898.88;6231590;22;20071;-80
2023/03/06 01:22:38;;;;;;;1.60;0.90;;;;;;;15.81;70.25;100890.22;6255345;22;20003;-80
2023/03/06 01:25:04;;;;;;;2.40;1.20;;;;;;;15.83;71.78;100898.03;6204562;22;20065;-80
2023/03/06 01:27:29;;;;;;;1.40;0.98;;;;;;;15.81;68.66;100897.16;6229394;22;20012;-80
2023/03/06 01:29:55;;;;;;;2.38;1.10;;;;;;;15.81;69.74;100887.63;6206040;22;20007;-80
2023/03/06 01:32:20;;;;;;;2.55;1.10;;;;;;;15.81;71.54;100898.03;6230745;22;20384;-80
2023/03/06 01:34:46;;;;;;;2.42;1.20;;;;;;;15.80;71.76;100891.09;6230642;22;20103;-80
2023/03/06 01:37:11;;;;;;;1.95;1.08;;;;;;;15.80;71.02;100891.09;6230867;22;20011;-80
2023/03/06 01:39:37;;;;;;;2.05;0.85;;;;;;;15.80;71.80;100887.63;6230566;22;20012;-80
2023/03/06 01:42:03;;;;;;;1.92;0.90;;;;;;;15.79;69.09;100886.78;6230666;22;20432;-80
2023/03/06 01:44:29;;;;;;;1.55;1.00;;;;;;;15.79;69.99;100884.19;6205552;22;20524;-80
2023/03/06 01:46:54;;;;;;;1.58;0.98;;;;;;;15.79;71.82;100879.00;6230136;22;20003;-80
2023/03/06 01:49:25;;;;;;;2.05;0.88;;;;;;;15.78;69.49;100884.19;6205368;22;20077;-81
2023/03/06 01:51:56;;;;;;;2.05;0.90;;;;;;;15.79;71.24;100883.31;6255552;22;20007;-80
2023/03/06 01:54:43;;;;;;;1.40;0.88;;;;;;;15.79;69.96;100878.13;6255548;22;20016;-80
2023/03/06 01:57:17;;;;;;;1.65;0.90;;;;;;;15.78;69.19;100869.47;6255771;22;20436;-80
2023/03/06 01:59:44;;;;;;;1.45;0.73;;;;;;;15.78;70.67;100864.28;6254078;22;20008;-80
2023/03/06 02:02:11;;;;;;;2.25;0.98;;;;;;;15.77;70.30;100859.97;6228603;22;20018;-80
2023/03/06 02:04:38;;;;;;;1.25;0.75;;;;;;;15.77;70.33;100862.56;6254195;22;20459;-80
2023/03/06 02:07:05;;;;;;;1.42;0.82;;;;;;;15.77;73.46;100852.19;6228816;22;20012;-80
2023/03/06 02:09:33;;;;;;;1.20;0.80;;;;;;;15.77;72.79;100844.41;6254755;22;20015;-80
2023/03/06 02:12:00;;;;;;;1.08;0.73;;;;;;;15.75;69.21;100842.69;6254609;22;20004;-80
2023/03/06 02:14:26;;;;;;;1.17;0.70;;;;;;;15.76;70.79;100846.97;6254632;22;20391;-80
2023/03/06 02:16:51;;;;;;;1.58;0.90;;;;;;;15.76;70.63;100828.81;6255884;22;20000;-80
2023/03/06 02:19:31;;;;;;;1.35;0.70;;;;;;;15.77;73.15;100827.97;6239987;22;20016;-80
2023/03/06 02:21:57;;;;;;;1.38;0.80;;;;;;;15.75;70.71;100824.53;6261138;22;20008;-80
2023/03/06 02:24:36;;;;;;;1.65;0.88;;;;;;;15.76;72.08;100810.66;6257102;22;20432;-80
2023/03/06 02:27:04;;;;;;;2.42;0.85;;;;;;;15.75;72.57;100809.81;6256294;22;20004;-81
2023/03/06 02:29:30;;;;;;;1.35;0.77;;;;;;;15.74;70.62;100802.91;6256274;22;20107;-81
2023/03/06 02:31:56;;;;;;;1.33;0.80;;;;;;;15.76;71.62;100808.06;6256642;22;20007;-80
2023/03/06 02:34:21;;;;;;;1.55;0.80;;;;;;;15.73;71.41;100819.31;6256711;22;20085;-80
2023/03/06 02:36:50;;;;;;;0.90;0.63;;;;;;;15.73;68.79;100823.66;6256259;22;20090;-81
2023/03/06 02:39:21;;;;;;;1.50;0.63;;;;;;;15.73;68.71;100824.50;6256290;22;20003;-81
2023/03/06 02:41:47;;;;;;;2.22;1.00;;;;;;;15.75;73.86;100809.81;6256061;22;20011;-80
2023/03/06 02:44:12;;;;;;;1.42;0.63;;;;;;;15.73;68.78;100802.91;6256482;22;20071;-81
2023/03/06 02:46:38;;;;;;;1.58;0.70;;;;;;;15.74;70.33;100802.91;6257377;22;20153;-80
2023/03/06 02:49:03;;;;;;;0.93;0.70;;;;;;;15.74;70.34;100797.72;6257360;22;20010;-81
2023/03/06 02:51:29;;;;;;;1.10;0.70;;;;;;;15.75;70.32;100789.06;6257383;22;20034;-81
2023/03/06 02:53:54;;;;;;;1.50;0.60;;;;;;;15.75;68.57;100785.59;6229922;22;20012;-80
2023/03/06 02:56:20;;;;;;;1.10;0.60;;;;;;;15.75;72.77;100785.59;6229246;22;20019;-80
2023/03/06 02:58:45;;;;;;;1.10;0.60;;;;;;;15.74;71.36;100773.47;6254691;22;20065;-80
2023/03/06 03:01:11;;;;;;;1.20;0.77;;;;;;;15.74;69.72;100774.38;6228898;22;20352;-80
2023/03/06 03:03:36;;;;;;;1.13;0.60;;;;;;;15.74;69.30;100776.06;6254657;22;20015;-80
2023/03/06 03:06:06;;;;;;;2.45;0.50;;;;;;;15.76;70.69;100763.97;6204081;22;20018;-80
2023/03/06 03:08:33;;;;;;;1.25;0.77;;;;;;;15.74;68.99;100765.69;6253578;22;20011;-80
2023/03/06 03:10:58;;;;;;;1.02;0.57;;;;;;;15.76;72.33;100762.22;6253796;22;20045;-80
2023/03/06 03:13:24;;;;;;;0.63;0.50;;;;;;;15.74;68.65;100758.81;6253399;22;20007;-80
2023/03/06 03:16:01;;;;;;;1.10;0.65;;;;;;;15.75;70.73;100767.44;6253163;22;20484;-79
2023/03/06 03:18:26;;;;;;;1.33;0.60;;;;;;;15.75;70.69;100777.81;6255366;22;20041;-80
2023/03/06 03:20:52;;;;;;;1.40;0.80;;;;;;;15.73;71.40;100774.38;6253940;22;20004;-79
2023/03/06 03:23:18;;;;;;;1.23;0.60;;;;;;;15.73;73.76;100764.84;6253458;22;20028;-80
2023/03/06 03:25:43;;;;;;;1.73;0.50;;;;;;;15.71;68.83;100758.78;6228681;22;20007;-80
2023/03/06 03:28:09;;;;;;;0.93;0.60;;;;;;;15.72;69.65;100768.31;6204084;22;20012;-80
2023/03/06 03:30:34;;;;;;;1.48;0.70;;;;;;;15.72;69.04;100770.91;6211415;22;20016;-80
2023/03/06 03:32:59;;;;;;;1.50;0.57;;;;;;;15.71;68.26;100757.91;6264352;22;20011;-79
2023/03/06 03:35:25;;;;;;;1.10;0.60;;;;;;;15.71;69.37;100751.00;6251623;22;19992;-82
2023/03/06 03:37:51;;;;;;;0.40;0.40;;;;;;;15.70;69.55;100749.25;6252913;22;20022;-81
2023/03/06 03:40:17;;;;;;;1.67;0.70;;;;;;;15.73;71.66;100753.59;6228386;22;20026;-80
2023/03/06 03:42:42;;;;;;;0.75;0.50;;;;;;;15.72;69.34;100749.28;6272362;22;20090;-80
2023/03/06 03:45:08;;;;;;;1.33;0.70;;;;;;;15.69;70.94;100747.53;6259454;22;20086;-80
2023/03/06 03:47:34;;;;;;;0.70;0.50;;;;;;;15.70;69.77;100754.44;6205649;22;20014;-81
2023/03/06 03:49:59;;;;;;;1.30;0.57;;;;;;;15.70;69.24;100749.25;6255994;22;19999;-79
2023/03/06 03:52:24;;;;;;;0.57;0.52;;;;;;;15.70;70.15;100757.03;6258825;22;20033;-80
2023/03/06 03:54:50;;;;;;;1.08;0.63;;;;;;;15.70;69.78;100764.81;6215403;22;20015;-81
2023/03/06 03:57:15;;;;;;;1.50;0.55;;;;;;;15.70;68.67;100758.75;6265230;22;20008;-80
2023/03/06 03:59:41;;;;;;;0.80;0.50;;;;;;;15.70;71.89;100754.44;6231602;22;20071;-81
2023/03/06 04:02:06;;;;;;;1.70;0.70;;;;;;;15.70;72.94;100749.25;6229481;22;20428;-80
2023/03/06 04:04:31;;;;;;;1.27;0.60;;;;;;;15.68;71.31;100745.81;6215102;22;20055;-80
2023/03/06 04:06:57;;;;;;;1.42;0.60;;;;;;;15.69;69.39;100747.53;6227485;22;20052;-81
2023/03/06 04:09:22;;;;;;;1.17;0.60;;;;;;;15.69;68.89;100750.13;6278591;22;19995;-81
2023/03/06 04:11:48;;;;;;;0.52;0.40;;;;;;;15.69;69.01;100737.16;6274077;22;20038;-80
2023/03/06 04:14:13;;;;;;;0.98;0.45;;;;;;;15.69;69.19;100733.69;6239758;22;20012;-81
2023/03/06 04:16:38;;;;;;;0.73;0.50;;;;;;;15.70;70.42;100733.69;6258502;22;20004;-81
2023/03/06 04:19:04;;;;;;;0.75;0.50;;;;;;;15.71;70.62;100742.34;6231513;22;20050;-80
2023/03/06 04:21:29;;;;;;;1.30;0.63;;;;;;;15.70;68.72;100730.22;6255957;22;20086;-80
2023/03/06 04:23:55;;;;;;;1.48;0.60;;;;;;;15.69;69.25;100731.94;6255820;22;20006;-80
2023/03/06 04:26:20;;;;;;;1.13;0.50;;;;;;;15.70;72.38;100727.63;6205941;22;20003;-80
2023/03/06 04:28:45;;;;;;;0.68;0.50;;;;;;;15.71;71.96;100731.97;6230749;22;20408;-80
2023/03/06 04:31:12;;;;;;;0.68;0.40;;;;;;;15.69;67.41;100726.75;6230603;22;20428;-80
2023/03/06 04:33:37;;;;;;;1.20;0.50;;;;;;;15.71;68.74;100734.56;6255769;22;20000;-80
2023/03/06 04:36:03;;;;;;;1.17;0.50;;;;;;;15.69;69.68;100726.75;6229460;22;20046;-79
2023/03/06 04:38:29;;;;;;;0.95;0.50;;;;;;;15.70;69.68;100725.91;6254105;22;20440;-80
2023/03/06 04:40:54;;;;;;;0.80;0.38;;;;;;;15.70;71.26;100717.25;6281423;22;20127;-80
2023/03/06 04:43:20;;;;;;;0.43;0.40;;;;;;;15.69;68.53;100720.72;6229444;22;20089;-80
2023/03/06 04:45:45;;;;;;;1.15;0.43;;;;;;;15.70;69.86;100728.50;6228647;22;20011;-80
2023/03/06 04:48:17;;;;;;;1.13;0.60;;;;;;;15.69;69.23;100728.50;6203293;22;20014;-80
2023/03/06 04:50:42;;;;;;;0.70;0.47;;;;;;;15.66;67.13;100731.09;6253870;22;20083;-80
2023/03/06 04:53:09;;;;;;;0.68;0.40;;;;;;;15.69;71.70;100725.91;6228818;22;20023;-80
2023/03/06 04:55:35;;;;;;;0.85;0.40;;;;;;;15.66;69.13;100726.78;6231259;22;20011;-80
2023/03/06 04:58:00;;;;;;;1.35;0.50;;;;;;;15.67;71.78;100722.47;6230377;22;20004;-80
2023/03/06 05:00:29;;;;;;;0.95;0.40;;;;;;;15.66;68.95;100724.19;6228647;22;20028;-80
2023/03/06 05:02:55;;;;;;;0.63;0.40;;;;;;;15.65;69.41;100727.63;6253711;22;20008;-80
2023/03/06 05:05:21;;;;;;;1.33;0.50;;;;;;;15.66;69.82;100724.19;6257698;22;20077;-80
2023/03/06 05:07:46;;;;;;;1.02;0.47;;;;;;;15.64;69.11;100726.78;6206430;22;20016;-81
2023/03/06 05:10:14;;;;;;;1.05;0.50;;;;;;;15.65;68.87;100727.63;6257044;22;20008;-81
2023/03/06 05:12:40;;;;;;;1.30;0.50;;;;;;;15.67;71.59;100718.13;6257944;22;20482;-81
2023/03/06 05:15:07;;;;;;;0.88;0.45;;;;;;;15.66;67.67;100729.38;6257774;22;20003;-80
2023/03/06 05:17:32;;;;;;;1.15;0.50;;;;;;;15.69;71.47;100728.50;6232558;22;20070;-80
2023/03/06 05:19:58;;;;;;;1.27;0.45;;;;;;;15.67;68.24;100717.25;6256540;22;20007;-80
2023/03/06 05:22:23;;;;;;;1.00;0.40;;;;;;;15.66;69.13;100716.41;6231622;22;20008;-81
2023/03/06 05:24:49;;;;;;;1.05;0.45;;;;;;;15.66;69.29;100723.31;6207468;22;20090;-81
2023/03/06 05:27:14;;;;;;;0.98;0.40;;;;;;;15.65;67.25;100719.84;6233956;22;20031;-81
2023/03/06 05:29:40;;;;;;;0.73;0.40;;;;;;;15.68;68.30;100731.94;6215713;22;20011;-81
2023/03/06 05:32:05;;;;;;;1.20;0.45;;;;;;;15.68;73.15;100730.25;6267754;22;20039;-81
2023/03/06 05:34:31;;;;;;;0.90;0.40;;;;;;;15.67;69.79;100725.06;6244316;22;20042;-81
2023/03/06 05:36:56;;;;;;;1.35;0.50;;;;;;;15.66;69.60;100719.00;6258389;22;20003;-80
2023/03/06 05:39:22;;;;;;;0.85;0.30;;;;;;;15.66;69.22;100719.00;6255503;22;20018;-80
2023/03/06 05:41:47;;;;;;;0.57;0.40;;;;;;;15.66;67.41;100720.72;6255627;22;20012;-80
2023/03/06 05:44:13;;;;;;;0.52;0.32;;;;;;;15.64;68.20;100715.56;6256640;22;20004;-80
2023/03/06 05:46:38;;;;;;;0.70;0.30;;;;;;;15.66;69.06;100719.00;6257485;22;20049;-81
2023/03/06 05:49:04;;;;;;;1.38;0.40;;;;;;;15.66;69.34;100719.00;6230164;22;20321;-80
2023/03/06 05:51:29;;;;;;;0.57;0.43;;;;;;;15.64;67.02;100718.16;6229965;22;20018;-80
2023/03/06 05:53:55;;;;;;;0.98;0.40;;;;;;;15.64;69.29;100713.81;6258992;22;20337;-80
2023/03/06 05:56:20;;;;;;;1.30;0.40;;;;;;;15.64;67.33;100713.81;6260524;22;20004;-81
2023/03/06 05:58:47;;;;;;;1.10;0.50;;;;;;;15.67;72.80;100719.88;6259416;22;20015;-79
2023/03/06 06:01:18;;;;;;;0.80;0.40;;;;;;;15.65;67.75;100717.25;6252919;22;20521;-79
2023/03/06 06:03:43;;;;;;;1.30;0.77;;;;;;;15.65;67.12;100717.25;6252791;22;20004;-79
2023/03/06 06:06:54;;;;;;;2.10;0.80;;;;;;;15.66;70.42;100719.00;6259650;22;20030;-79
2023/03/06 06:09:23;;;;;;;4.60;0.60;;;;;;;15.64;68.31;100719.00;6272341;22;20011;-81
2023/03/06 06:11:54;;;;;;;3.28;0.80;;;;;;;15.63;67.54;100714.69;6236472;22;20071;-79
2023/03/06 06:14:20;;;;;;;1.50;0.65;;;;;;;15.65;67.88;100717.25;6254466;22;20049;-79
2023/03/06 06:16:46;;;;;;;4.30;0.65;;;;;;;15.66;71.26;100720.72;6272195;22;20007;-79
2023/03/06 06:19:19;;;;;;;2.42;0.80;;;;;;;15.66;71.44;100723.31;6302420;22;19999;-80
2023/03/06 06:22:28;;;;;;;1.60;0.77;;;;;;;15.66;72.07;100713.81;6277556;22;20011;-82
2023/03/06 06:28:15;;;;;;;4.18;0.90;;;;;;;15.65;67.96;100714.66;6289282;22;20024;-80
2023/03/06 06:30:40;;;;;;;1.92;0.60;;;;;;;15.66;68.45;100713.81;6279595;22;20428;-78
2023/03/06 06:33:06;;;;;;;2.08;0.70;;;;;;;15.68;71.31;100713.78;6280328;22;20003;-79
2023/03/06 06:35:45;;;;;;;6.00;1.75;;;;;;;15.67;70.91;100710.34;6231247;22;20424;-80
2023/03/06 06:51:53;;;;;;;5.07;1.80;;;;;;;15.67;71.58;100720.72;6242713;22;20064;-83
2023/03/06 06:57:40;;;;;;;6.15;1.50;;;;;;;15.68;69.29;100722.47;6240024;22;20028;-83
2023/03/06 07:00:07;;;;;;;7.90;1.65;;;;;;;15.67;68.55;100719.88;6309865;22;20051;-84
2023/03/06 07:31:08;;;;;;;3.05;1.40;;;;;;;15.69;67.05;100731.94;6204997;22;20252;31
2023/03/06 07:58:54;;;;;;;3.47;1.02;;;;;;;15.75;65.26;100712.94;6182909;23;20048;-83
2023/03/06 08:53:08;;;;;;;2.20;0.80;;;;;;;16.08;72.60;100711.94;6246133;22;20238;-84
2023/03/06 09:04:20;;;;;;;1.33;0.70;;;;;;;16.09;72.17;100710.19;6301236;22;20016;-83
2023/03/06 09:14:07;;;;;;;1.88;0.73;;;;;;;16.09;73.64;100703.28;6288550;22;20026;-81
2023/03/06 09:20:22;;;;;;;1.70;0.75;;;;;;;16.08;69.13;100704.13;6307619;22;20006;-82
2023/03/06 09:23:15;;;;;;;1.55;0.68;;;;;;;16.10;73.01;100707.59;6168025;23;20049;-83
2023/03/06 09:29:28;;;;;;;0.70;0.50;;;;;;;16.10;73.10;100693.75;6245256;22;20032;-83
2023/03/06 09:54:26;;;;;;;1.27;0.70;;;;;;;16.05;67.19;100688.59;6306672;22;20030;-83
2023/03/06 10:50:05;;;;;;;1.27;0.60;;;;;;;16.16;69.91;100667.78;6259272;22;20007;-83
2023/03/06 18:30:19;;;;;;;6.47;1.27;;;;;;;17.28;55.29;100118.09;6215299;23;20031;-80
2023/03/06 18:33:13;;;;;;;1.77;1.20;;;;;;;17.31;55.13;100109.38;6241140;23;20001;-83
2023/03/06 18:36:06;;;;;;;2.42;1.23;;;;;;;17.28;55.08;100098.16;6217750;23;20035;-82
2023/03/06 22:07:16;;;;;;;1.38;1.05;;;;;;;17.06;54.67;99881.13;6242940;22;20011;-82
